sensor_id;sensor_type;location;lat;lon;timestamp;pressure;altitude;pressure_sealevel;temperature;humidity
70103;BME280;57470;50.034;15.256;2023-02-18T00:02:16;99566.69;;;10.16;100.00
70103;BME280;57470;50.034;15.256;2023-02-18T00:04:41;99571.47;;;10.11;100.00
70103;BME280;57470;50.034;15.256;2023-02-18T00:07:06;99576.19;;;10.20;100.00
70103;BME280;57470;50.034;15.256;2023-02-18T00:09:32;99562.81;;;10.22;100.00
70103;BME280;57470;50.034;15.256;2023-02-18T00:11:57;99566.31;;;10.22;100.00
70103;BME280;57470;50.034;15.256;2023-02-18T00:14:22;99572.00;;;10.16;100.00
70103;BME280;57470;50.034;15.256;2023-02-18T00:16:48;99566.97;;;10.11;100.00
70103;BME280;57470;50.034;15.256;2023-02-18T00:19:16;99568.41;;;10.17;100.00
70103;BME280;57470;50.034;15.256;2023-02-18T00:21:43;99565.41;;;10.09;100.00
70103;BME280;57470;50.034;15.256;2023-02-18T00:24:08;99573.47;;;10.07;100.00
70103;BME280;57470;50.034;15.256;2023-02-18T00:26:34;99586.31;;;10.01;100.00
70103;BME280;57470;50.034;15.256;2023-02-18T00:29:00;99581.84;;;10.01;100.00
70103;BME280;57470;50.034;15.256;2023-02-18T00:31:29;99581.94;;;10.00;100.00
70103;BME280;57470;50.034;15.256;2023-02-18T00:33:56;99581.94;;;10.00;100.00
70103;BME280;57470;50.034;15.256;2023-02-18T00:36:23;99587.53;;;9.95;100.00
70103;BME280;57470;50.034;15.256;2023-02-18T00:38:50;99581.94;;;10.00;100.00
70103;BME280;57470;50.034;15.256;2023-02-18T00:41:17;99585.63;;;9.97;100.00
70103;BME280;57470;50.034;15.256;2023-02-18T00:43:43;99575.69;;;10.01;100.00
70103;BME280;57470;50.034;15.256;2023-02-18T00:46:09;99583.84;;;9.98;100.00
70103;BME280;57470;50.034;15.256;2023-02-18T00:48:35;99582.28;;;10.08;100.00
70103;BME280;57470;50.034;15.256;2023-02-18T00:51:01;99590.72;;;10.14;100.00
70103;BME280;57470;50.034;15.256;2023-02-18T00:53:27;99590.25;;;10.22;100.00
70103;BME280;57470;50.034;15.256;2023-02-18T00:55:53;99586.53;;;10.25;100.00
70103;BME280;57470;50.034;15.256;2023-02-18T00:58:18;99582.53;;;10.32;100.00
70103;BME280;57470;50.034;15.256;2023-02-18T01:00:44;99584.03;;;10.36;100.00
70103;BME280;57470;50.034;15.256;2023-02-18T01:03:10;99575.97;;;10.37;100.00
70103;BME280;57470;50.034;15.256;2023-02-18T01:05:37;99588.50;;;10.35;100.00
70103;BME280;57470;50.034;15.256;2023-02-18T01:08:04;99590.13;;;10.38;100.00
70103;BME280;57470;50.034;15.256;2023-02-18T01:10:30;99590.13;;;10.38;100.00
70103;BME280;57470;50.034;15.256;2023-02-18T01:12:56;99591.16;;;10.35;100.00
70103;BME280;57470;50.034;15.256;2023-02-18T01:15:22;99596.66;;;10.32;100.00
70103;BME280;57470;50.034;15.256;2023-02-18T01:17:48;99588.50;;;10.35;100.00
70103;BME280;57470;50.034;15.256;2023-02-18T01:20:16;99591.25;;;10.34;100.00
70103;BME280;57470;50.034;15.256;2023-02-18T01:22:42;99577.78;;;10.37;100.00
70103;BME280;57470;50.034;15.256;2023-02-18T01:25:08;99576.06;;;10.36;100.00
70103;BME280;57470;50.034;15.256;2023-02-18T01:27:34;99587.56;;;10.36;100.00
70103;BME280;57470;50.034;15.256;2023-02-18T01:29:59;99583.44;;;10.45;100.00
70103;BME280;57470;50.034;15.256;2023-02-18T01:32:24;99590.56;;;10.44;100.00
70103;BME280;57470;50.034;15.256;2023-02-18T01:34:50;99590.56;;;10.44;100.00
70103;BME280;57470;50.034;15.256;2023-02-18T01:37:15;99588.66;;;10.46;100.00
70103;BME280;57470;50.034;15.256;2023-02-18T01:39:41;99588.78;;;10.58;100.00
70103;BME280;57470;50.034;15.256;2023-02-18T01:42:06;99599.22;;;10.61;100.00
70103;BME280;57470;50.034;15.256;2023-02-18T01:44:33;99599.91;;;10.50;100.00
70103;BME280;57470;50.034;15.256;2023-02-18T01:46:58;99591.94;;;10.50;100.00
70103;BME280;57470;50.034;15.256;2023-02-18T01:49:27;99595.88;;;10.44;100.00
70103;BME280;57470;50.034;15.256;2023-02-18T01:52:16;99605.41;;;10.34;100.00
70103;BME280;57470;50.034;15.256;2023-02-18T01:54:45;99596.31;;;10.24;100.00
70103;BME280;57470;50.034;15.256;2023-02-18T01:57:15;99602.38;;;10.12;100.00
70103;BME280;57470;50.034;15.256;2023-02-18T01:59:46;99591.94;;;10.23;100.00
70103;BME280;57470;50.034;15.256;2023-02-18T02:02:16;99585.50;;;10.13;100.00
70103;BME280;57470;50.034;15.256;2023-02-18T02:04:42;99593.88;;;10.07;100.00
70103;BME280;57470;50.034;15.256;2023-02-18T02:07:08;99602.38;;;10.12;100.00
70103;BME280;57470;50.034;15.256;2023-02-18T02:09:34;99595.41;;;10.11;100.00
70103;BME280;57470;50.034;15.256;2023-02-18T02:35:13;99604.91;;;10.01;100.00
70103;BME280;57470;50.034;15.256;2023-02-18T02:37:48;99613.59;;;10.03;100.00
70103;BME280;57470;50.034;15.256;2023-02-18T02:43:15;99626.34;;;9.98;100.00
70103;BME280;57470;50.034;15.256;2023-02-18T02:50:53;99625.13;;;9.89;100.00
70103;BME280;57470;50.034;15.256;2023-02-18T02:53:26;99612.69;;;9.90;100.00
70103;BME280;57470;50.034;15.256;2023-02-18T02:55:54;99611.56;;;9.79;100.00
70103;BME280;57470;50.034;15.256;2023-02-18T02:58:21;99611.09;;;9.73;100.00
70103;BME280;57470;50.034;15.256;2023-02-18T03:09:01;99595.00;;;9.48;100.00
70103;BME280;57470;50.034;15.256;2023-02-18T03:11:43;99593.09;;;9.50;100.00
70103;BME280;57470;50.034;15.256;2023-02-18T03:14:27;99589.97;;;9.43;100.00
70103;BME280;57470;50.034;15.256;2023-02-18T03:22:15;99620.13;;;9.56;100.00
70103;BME280;57470;50.034;15.256;2023-02-18T03:24:47;99626.47;;;9.54;100.00
70103;BME280;57470;50.034;15.256;2023-02-18T03:27:26;99620.50;;;9.50;100.00
70103;BME280;57470;50.034;15.256;2023-02-18T03:30:09;99633.03;;;9.48;100.00
70103;BME280;57470;50.034;15.256;2023-02-18T03:32:38;99626.19;;;9.44;100.00
70103;BME280;57470;50.034;15.256;2023-02-18T03:35:09;99626.94;;;9.32;100.00
70103;BME280;57470;50.034;15.256;2023-02-18T03:37:42;99622.19;;;9.51;100.00
70103;BME280;57470;50.034;15.256;2023-02-18T03:40:10;99618.44;;;9.55;100.00
70103;BME280;57470;50.034;15.256;2023-02-18T03:42:36;99624.66;;;9.40;100.00
70103;BME280;57470;50.034;15.256;2023-02-18T03:45:02;99621.44;;;9.35;100.00
70103;BME280;57470;50.034;15.256;2023-02-18T03:47:28;99617.06;;;9.34;100.00
70103;BME280;57470;50.034;15.256;2023-02-18T03:49:53;99618.22;;;9.44;100.00
70103;BME280;57470;50.034;15.256;2023-02-18T03:52:19;99624.41;;;9.30;100.00
70103;BME280;57470;50.034;15.256;2023-02-18T03:54:44;99616.59;;;9.41;100.00
70103;BME280;57470;50.034;15.256;2023-02-18T03:57:09;99617.84;;;9.36;100.00
70103;BME280;57470;50.034;15.256;2023-02-18T03:59:35;99618.03;;;9.33;100.00
70103;BME280;57470;50.034;15.256;2023-02-18T04:02:00;99621.44;;;9.35;100.00
70103;BME280;57470;50.034;15.256;2023-02-18T04:04:28;99610.28;;;9.30;100.00
70103;BME280;57470;50.034;15.256;2023-02-18T04:06:53;99618.69;;;9.36;100.00
70103;BME280;57470;50.034;15.256;2023-02-18T04:09:18;99622.84;;;9.26;100.00
70103;BME280;57470;50.034;15.256;2023-02-18T04:11:44;99621.44;;;9.35;100.00
70103;BME280;57470;50.034;15.256;2023-02-18T04:14:12;99612.72;;;9.33;100.00
70103;BME280;57470;50.034;15.256;2023-02-18T04:16:38;99614.72;;;9.29;100.00
70103;BME280;57470;50.034;15.256;2023-02-18T04:19:03;99622.13;;;9.38;100.00
70103;BME280;57470;50.034;15.256;2023-02-18T04:21:29;99623.34;;;9.33;100.00
70103;BME280;57470;50.034;15.256;2023-02-18T04:23:54;99620.13;;;9.28;100.00
70103;BME280;57470;50.034;15.256;2023-02-18T04:26:19;99627.44;;;9.38;100.00
70103;BME280;57470;50.034;15.256;2023-02-18T04:28:45;99626.28;;;9.28;100.00
70103;BME280;57470;50.034;15.256;2023-02-18T04:31:10;99620.28;;;9.25;100.00
70103;BME280;57470;50.034;15.256;2023-02-18T04:33:35;99635.41;;;9.38;100.00
70103;BME280;57470;50.034;15.256;2023-02-18T04:36:01;99629.97;;;9.12;100.00
70103;BME280;57470;50.034;15.256;2023-02-18T04:38:27;99640.41;;;9.29;100.00
70103;BME280;57470;50.034;15.256;2023-02-18T04:40:53;99634.03;;;9.17;100.00
70103;BME280;57470;50.034;15.256;2023-02-18T04:43:18;99631.75;;;9.25;100.00
70103;BME280;57470;50.034;15.256;2023-02-18T04:45:43;99638.09;;;9.23;100.00
70103;BME280;57470;50.034;15.256;2023-02-18T04:48:09;99640.81;;;9.07;100.00
70103;BME280;57470;50.034;15.256;2023-02-18T04:50:34;99627.59;;;9.21;100.00
70103;BME280;57470;50.034;15.256;2023-02-18T04:53:00;99631.28;;;9.19;100.00
70103;BME280;57470;50.034;15.256;2023-02-18T04:55:25;99628.03;;;9.14;100.00
70103;BME280;57470;50.034;15.256;2023-02-18T04:57:50;99623.41;;;9.03;100.00
70103;BME280;57470;50.034;15.256;2023-02-18T05:00:18;99623.13;;;9.08;100.00
70103;BME280;57470;50.034;15.256;2023-02-18T05:02:45;99620.53;;;9.06;100.00
70103;BME280;57470;50.034;15.256;2023-02-18T05:05:11;99629.06;;;8.97;100.00
70103;BME280;57470;50.034;15.256;2023-02-18T05:07:37;99631.91;;;8.94;100.00
70103;BME280;57470;50.034;15.256;2023-02-18T05:10:03;99637.09;;;8.95;100.00
70103;BME280;57470;50.034;15.256;2023-02-18T05:12:29;99639.56;;;8.98;100.00
70103;BME280;57470;50.034;15.256;2023-02-18T05:14:54;99640.91;;;9.06;100.00
70103;BME280;57470;50.034;15.256;2023-02-18T05:17:19;99636.34;;;8.93;100.00
70103;BME280;57470;50.034;15.256;2023-02-18T05:19:45;99634.66;;;8.92;100.00
70103;BME280;57470;50.034;15.256;2023-02-18T05:22:10;99637.94;;;8.96;100.00
70103;BME280;57470;50.034;15.256;2023-02-18T05:24:35;99639.50;;;9.00;100.00
70103;BME280;57470;50.034;15.256;2023-02-18T05:27:01;99641.13;;;9.02;100.00
70103;BME280;57470;50.034;15.256;2023-02-18T05:29:26;99646.50;;;9.01;100.00
70103;BME280;57470;50.034;15.256;2023-02-18T05:31:51;99646.72;;;9.12;100.00
70103;BME280;57470;50.034;15.256;2023-02-18T05:34:17;99657.59;;;9.08;100.00
70103;BME280;57470;50.034;15.256;2023-02-18T05:36:43;99646.44;;;9.17;100.00
70103;BME280;57470;50.034;15.256;2023-02-18T05:39:08;99647.06;;;9.06;100.00
70103;BME280;57470;50.034;15.256;2023-02-18T05:41:33;99647.56;;;9.13;100.00
70103;BME280;57470;50.034;15.256;2023-02-18T05:43:59;99644.50;;;9.04;100.00
70103;BME280;57470;50.034;15.256;2023-02-18T05:46:43;99644.63;;;9.03;100.00
70103;BME280;57470;50.034;15.256;2023-02-18T05:49:08;99650.66;;;9.05;100.00
70103;BME280;57470;50.034;15.256;2023-02-18T05:51:33;99638.00;;;9.10;100.00
70103;BME280;57470;50.034;15.256;2023-02-18T05:53:59;99632.00;;;9.07;100.00
70103;BME280;57470;50.034;15.256;2023-02-18T05:56:24;99639.03;;;9.22;100.00
70103;BME280;57470;50.034;15.256;2023-02-18T05:58:50;99637.94;;;9.26;100.00
70103;BME280;57470;50.034;15.256;2023-02-18T06:01:15;99626.91;;;9.18;100.00
70103;BME280;57470;50.034;15.256;2023-02-18T06:03:40;99637.78;;;9.13;100.00
70103;BME280;57470;50.034;15.256;2023-02-18T06:06:06;99638.69;;;9.28;100.00
70103;BME280;57470;50.034;15.256;2023-02-18T06:08:32;99639.63;;;9.41;100.00
70103;BME280;57470;50.034;15.256;2023-02-18T06:10:57;99649.53;;;9.39;100.00
70103;BME280;57470;50.034;15.256;2023-02-18T06:13:23;99648.28;;;9.45;100.00
70103;BME280;57470;50.034;15.256;2023-02-18T06:15:51;99653.41;;;9.48;100.00
70103;BME280;57470;50.034;15.256;2023-02-18T06:18:18;99650.56;;;9.36;100.00
70103;BME280;57470;50.034;15.256;2023-02-18T06:20:46;99660.16;;;9.39;100.00
70103;BME280;57470;50.034;15.256;2023-02-18T06:23:11;99650.63;;;9.49;100.00
70103;BME280;57470;50.034;15.256;2023-02-18T06:25:36;99640.41;;;9.43;100.00
70103;BME280;57470;50.034;15.256;2023-02-18T06:28:02;99639.94;;;9.36;100.00
70103;BME280;57470;50.034;15.256;2023-02-18T06:30:27;99639.56;;;9.43;100.00
70103;BME280;57470;50.034;15.256;2023-02-18T06:32:52;99643.06;;;9.29;100.00
70103;BME280;57470;50.034;15.256;2023-02-18T06:35:18;99638.50;;;9.31;100.00
70103;BME280;57470;50.034;15.256;2023-02-18T06:37:43;99645.63;;;9.30;100.00
70103;BME280;57470;50.034;15.256;2023-02-18T06:40:10;99635.28;;;9.40;100.00
70103;BME280;57470;50.034;15.256;2023-02-18T06:42:35;99643.53;;;9.35;100.00
70103;BME280;57470;50.034;15.256;2023-02-18T06:45:01;99634.53;;;9.38;100.00
70103;BME280;57470;50.034;15.256;2023-02-18T06:47:26;99636.03;;;9.28;100.00
70103;BME280;57470;50.034;15.256;2023-02-18T06:49:51;99624.00;;;9.36;100.00
70103;BME280;57470;50.034;15.256;2023-02-18T06:52:17;99628.94;;;9.43;100.00
70103;BME280;57470;50.034;15.256;2023-02-18T06:54:42;99619.34;;;9.40;100.00
70103;BME280;57470;50.034;15.256;2023-02-18T06:57:07;99622.50;;;9.47;100.00
70103;BME280;57470;50.034;15.256;2023-02-18T06:59:33;99623.53;;;9.58;100.00
70103;BME280;57470;50.034;15.256;2023-02-18T07:01:58;99625.06;;;9.48;100.00
70103;BME280;57470;50.034;15.256;2023-02-18T07:04:24;99621.44;;;9.63;100.00
70103;BME280;57470;50.034;15.256;2023-02-18T07:06:49;99623.53;;;9.58;100.00
70103;BME280;57470;50.034;15.256;2023-02-18T07:09:14;99625.44;;;9.56;100.00
70103;BME280;57470;50.034;15.256;2023-02-18T07:11:40;99616.50;;;9.71;100.00
70103;BME280;57470;50.034;15.256;2023-02-18T07:14:05;99617.94;;;9.63;100.00
70103;BME280;57470;50.034;15.256;2023-02-18T07:16:31;99604.09;;;9.72;100.00
70103;BME280;57470;50.034;15.256;2023-02-18T07:18:56;99607.19;;;9.93;100.00
70103;BME280;57470;50.034;15.256;2023-02-18T07:21:21;99604.47;;;9.80;100.00
70103;BME280;57470;50.034;15.256;2023-02-18T07:23:47;99594.97;;;9.90;100.00
70103;BME280;57470;50.034;15.256;2023-02-18T07:26:13;99592.94;;;9.94;100.00
70103;BME280;57470;50.034;15.256;2023-02-18T07:28:39;99592.16;;;10.06;100.00
70103;BME280;57470;50.034;15.256;2023-02-18T07:31:05;99591.34;;;9.91;100.00
70103;BME280;57470;50.034;15.256;2023-02-18T07:33:31;99581.94;;;10.00;100.00
70103;BME280;57470;50.034;15.256;2023-02-18T07:35:58;99578.44;;;9.99;100.00
70103;BME280;57470;50.034;15.256;2023-02-18T07:38:25;99577.72;;;10.24;100.00
70103;BME280;57470;50.034;15.256;2023-02-18T07:40:51;99571.16;;;10.15;100.00
70103;BME280;57470;50.034;15.256;2023-02-18T07:43:17;99572.09;;;10.14;100.00
70103;BME280;57470;50.034;15.256;2023-02-18T07:45:43;99575.19;;;10.08;100.00
70103;BME280;57470;50.034;15.256;2023-02-18T07:48:08;99564.31;;;10.26;100.00
70103;BME280;57470;50.034;15.256;2023-02-18T07:50:34;99560.16;;;10.22;100.00
70103;BME280;57470;50.034;15.256;2023-02-18T07:53:04;99564.84;;;10.18;100.00
70103;BME280;57470;50.034;15.256;2023-02-18T07:55:30;99556.75;;;10.20;100.00
70103;BME280;57470;50.034;15.256;2023-02-18T07:58:23;99555.31;;;10.28;100.00
70103;BME280;57470;50.034;15.256;2023-02-18T08:00:50;99555.41;;;10.79;100.00
70103;BME280;57470;50.034;15.256;2023-02-18T08:03:17;99561.94;;;11.00;100.00
70103;BME280;57470;50.034;15.256;2023-02-18T08:05:47;99564.47;;;10.89;100.00
70103;BME280;57470;50.034;15.256;2023-02-18T08:08:16;99566.69;;;10.70;100.00
70103;BME280;57470;50.034;15.256;2023-02-18T08:10:42;99569.53;;;10.67;100.00
70103;BME280;57470;50.034;15.256;2023-02-18T08:13:08;99560.22;;;10.47;100.00
70103;BME280;57470;50.034;15.256;2023-02-18T08:15:33;99559.75;;;10.67;100.00
70103;BME280;57470;50.034;15.256;2023-02-18T08:17:59;99567.81;;;10.66;100.00
70103;BME280;57470;50.034;15.256;2023-02-18T08:20:24;99569.25;;;10.84;100.00
70103;BME280;57470;50.034;15.256;2023-02-18T08:22:50;99572.13;;;10.94;100.00
70103;BME280;57470;50.034;15.256;2023-02-18T08:25:15;99560.97;;;11.01;100.00
70103;BME280;57470;50.034;15.256;2023-02-18T08:27:40;99561.50;;;11.06;100.00
70103;BME280;57470;50.034;15.256;2023-02-18T08:30:07;99559.28;;;11.00;100.00
70103;BME280;57470;50.034;15.256;2023-02-18T08:32:32;99564.59;;;11.25;100.00
70103;BME280;57470;50.034;15.256;2023-02-18T08:34:57;99560.78;;;11.17;100.00
70103;BME280;57470;50.034;15.256;2023-02-18T08:37:23;99552.34;;;11.36;100.00
70103;BME280;57470;50.034;15.256;2023-02-18T08:39:48;99553.91;;;11.51;99.71
70103;BME280;57470;50.034;15.256;2023-02-18T08:42:14;99541.75;;;11.59;99.04
70103;BME280;57470;50.034;15.256;2023-02-18T08:44:39;99540.47;;;11.65;97.83
70103;BME280;57470;50.034;15.256;2023-02-18T08:47:08;99544.06;;;11.64;98.26
70103;BME280;57470;50.034;15.256;2023-02-18T08:49:33;99538.06;;;11.37;97.54
70103;BME280;57470;50.034;15.256;2023-02-18T08:52:01;99545.78;;;11.65;98.94
70103;BME280;57470;50.034;15.256;2023-02-18T08:54:27;99536.22;;;11.62;98.37
70103;BME280;57470;50.034;15.256;2023-02-18T08:56:55;99535.06;;;11.54;98.78
70103;BME280;57470;50.034;15.256;2023-02-18T08:59:22;99533.78;;;11.47;99.55
70103;BME280;57470;50.034;15.256;2023-02-18T09:01:48;99529.66;;;11.43;99.43
70103;BME280;57470;50.034;15.256;2023-02-18T09:04:13;99522.31;;;11.21;98.42
70103;BME280;57470;50.034;15.256;2023-02-18T09:06:39;99519.31;;;11.38;97.44
70103;BME280;57470;50.034;15.256;2023-02-18T09:09:04;99510.44;;;11.50;96.08
70103;BME280;57470;50.034;15.256;2023-02-18T09:11:30;99504.91;;;11.53;96.43
70103;BME280;57470;50.034;15.256;2023-02-18T09:13:55;99511.06;;;11.79;94.97
70103;BME280;57470;50.034;15.256;2023-02-18T09:16:21;99501.56;;;11.75;95.58
70103;BME280;57470;50.034;15.256;2023-02-18T09:18:47;99496.97;;;11.77;95.33
70103;BME280;57470;50.034;15.256;2023-02-18T09:21:13;99491.44;;;11.68;95.06
70103;BME280;57470;50.034;15.256;2023-02-18T09:23:40;99496.31;;;11.74;95.25
70103;BME280;57470;50.034;15.256;2023-02-18T09:26:08;99488.41;;;11.72;94.97
70103;BME280;57470;50.034;15.256;2023-02-18T09:28:35;99493.84;;;11.83;94.59
70103;BME280;57470;50.034;15.256;2023-02-18T09:31:09;99490.19;;;11.97;94.79
70103;BME280;57470;50.034;15.256;2023-02-18T09:33:37;99493.19;;;11.92;94.04
70103;BME280;57470;50.034;15.256;2023-02-18T09:36:04;99495.41;;;11.98;93.46
70103;BME280;57470;50.034;15.256;2023-02-18T09:38:30;99491.25;;;11.94;94.10
70103;BME280;57470;50.034;15.256;2023-02-18T09:40:56;99490.31;;;11.95;93.61
70103;BME280;57470;50.034;15.256;2023-02-18T09:43:33;99481.72;;;12.03;92.73
70103;BME280;57470;50.034;15.256;2023-02-18T09:46:00;99489.72;;;12.03;93.12
70103;BME280;57470;50.034;15.256;2023-02-18T09:48:34;99478.97;;;12.05;92.83
70103;BME280;57470;50.034;15.256;2023-02-18T09:51:00;99474.91;;;12.23;92.10
70103;BME280;57470;50.034;15.256;2023-02-18T09:53:26;99472.03;;;12.37;92.40
70103;BME280;57470;50.034;15.256;2023-02-18T09:55:53;99470.06;;;12.28;91.22
70103;BME280;57470;50.034;15.256;2023-02-18T09:58:23;99460.19;;;12.41;90.68
70103;BME280;57470;50.034;15.256;2023-02-18T10:01:02;99462.91;;;12.63;91.25
70103;BME280;57470;50.034;15.256;2023-02-18T10:03:28;99450.69;;;12.83;91.76
70103;BME280;57470;50.034;15.256;2023-02-18T10:06:06;99446.31;;;12.93;90.23
70103;BME280;57470;50.034;15.256;2023-02-18T10:08:41;99446.69;;;13.11;90.12
70103;BME280;57470;50.034;15.256;2023-02-18T10:11:13;99438.91;;;12.86;89.36
70103;BME280;57470;50.034;15.256;2023-02-18T10:13:42;99421.44;;;12.70;89.83
70103;BME280;57470;50.034;15.256;2023-02-18T10:16:08;99418.63;;;12.72;90.13
70103;BME280;57470;50.034;15.256;2023-02-18T10:18:42;99418.75;;;12.82;90.29
70103;BME280;57470;50.034;15.256;2023-02-18T10:21:13;99404.69;;;12.68;90.02
70103;BME280;57470;50.034;15.256;2023-02-18T10:23:42;99404.47;;;12.94;91.11
70103;BME280;57470;50.034;15.256;2023-02-18T10:26:16;99412.94;;;12.99;90.28
70103;BME280;57470;50.034;15.256;2023-02-18T10:28:42;99405.19;;;12.96;90.04
70103;BME280;57470;50.034;15.256;2023-02-18T10:31:09;99406.63;;;13.00;89.63
70103;BME280;57470;50.034;15.256;2023-02-18T10:33:45;99396.47;;;13.05;89.89
70103;BME280;57470;50.034;15.256;2023-02-18T10:46:36;99364.03;;;13.09;91.56
70103;BME280;57470;50.034;15.256;2023-02-18T10:51:52;99370.75;;;12.70;91.62
70103;BME280;57470;50.034;15.256;2023-02-18T10:54:23;99359.69;;;12.75;91.59
70103;BME280;57470;50.034;15.256;2023-02-18T10:56:50;99356.41;;;12.71;92.60
70103;BME280;57470;50.034;15.256;2023-02-18T10:59:21;99351.44;;;12.78;93.21
70103;BME280;57470;50.034;15.256;2023-02-18T11:01:57;99356.78;;;12.78;93.31
70103;BME280;57470;50.034;15.256;2023-02-18T11:04:44;99346.97;;;12.78;93.55
70103;BME280;57470;50.034;15.256;2023-02-18T11:07:14;99332.75;;;12.89;92.42
70103;BME280;57470;50.034;15.256;2023-02-18T11:10:55;99332.28;;;12.95;92.22
70103;BME280;57470;50.034;15.256;2023-02-18T11:13:04;99329.56;;;13.06;91.30
70103;BME280;57470;50.034;15.256;2023-02-18T11:15:31;99312.31;;;13.10;91.76
70103;BME280;57470;50.034;15.256;2023-02-18T11:18:55;99318.53;;;13.00;90.27
70103;BME280;57470;50.034;15.256;2023-02-18T11:21:01;99303.97;;;13.04;90.34
70103;BME280;57470;50.034;15.256;2023-02-18T11:23:27;99299.00;;;12.99;90.72
70103;BME280;57470;50.034;15.256;2023-02-18T11:25:56;99293.28;;;13.04;90.17
70103;BME280;57470;50.034;15.256;2023-02-18T11:28:55;99299.25;;;12.96;90.69
70103;BME280;57470;50.034;15.256;2023-02-18T11:31:33;99272.66;;;13.06;91.31
70103;BME280;57470;50.034;15.256;2023-02-18T11:34:00;99286.88;;;12.95;90.50
70103;BME280;57470;50.034;15.256;2023-02-18T11:36:29;99286.75;;;12.97;90.30
70103;BME280;57470;50.034;15.256;2023-02-18T11:39:01;99278.38;;;12.90;89.91
70103;BME280;57470;50.034;15.256;2023-02-18T11:41:43;99261.63;;;12.99;89.78
70103;BME280;57470;50.034;15.256;2023-02-18T11:49:43;99249.13;;;13.00;92.46
70103;BME280;57470;50.034;15.256;2023-02-18T11:52:26;99248.16;;;12.90;92.24
70103;BME280;57470;50.034;15.256;2023-02-18T11:55:20;99235.84;;;12.77;95.83
70103;BME280;57470;50.034;15.256;2023-02-18T11:57:49;99241.31;;;12.76;94.47
70103;BME280;57470;50.034;15.256;2023-02-18T12:00:24;99229.25;;;12.82;93.19
70103;BME280;57470;50.034;15.256;2023-02-18T12:02:55;99235.41;;;13.04;92.71
70103;BME280;57470;50.034;15.256;2023-02-18T12:05:25;99233.50;;;12.95;91.46
70103;BME280;57470;50.034;15.256;2023-02-18T12:07:58;99230.22;;;12.92;92.08
70103;BME280;57470;50.034;15.256;2023-02-18T12:10:29;99224.03;;;12.91;91.43
70103;BME280;57470;50.034;15.256;2023-02-18T12:13:06;99224.13;;;13.01;90.07
70103;BME280;57470;50.034;15.256;2023-02-18T12:18:20;99207.47;;;12.76;89.71
70103;BME280;57470;50.034;15.256;2023-02-18T12:21:01;99208.88;;;12.81;88.49
70103;BME280;57470;50.034;15.256;2023-02-18T12:23:41;99197.75;;;12.75;87.81
70103;BME280;57470;50.034;15.256;2023-02-18T12:29:15;99192.19;;;12.78;87.37
70103;BME280;57470;50.034;15.256;2023-02-18T12:31:55;99202.25;;;12.75;87.53
70103;BME280;57470;50.034;15.256;2023-02-18T12:34:28;99204.78;;;12.76;86.74
70103;BME280;57470;50.034;15.256;2023-02-18T12:42:59;99183.69;;;12.73;87.17
70103;BME280;57470;50.034;15.256;2023-02-18T12:48:57;99191.47;;;12.65;86.79
70103;BME280;57470;50.034;15.256;2023-02-18T12:52:08;99175.56;;;12.64;85.67
70103;BME280;57470;50.034;15.256;2023-02-18T13:00:43;99165.19;;;12.50;85.57
70103;BME280;57470;50.034;15.256;2023-02-18T13:03:07;99143.25;;;12.46;85.72
70103;BME280;57470;50.034;15.256;2023-02-18T13:08:34;99146.97;;;12.66;83.41
70103;BME280;57470;50.034;15.256;2023-02-18T13:16:47;99137.00;;;12.68;83.65
70103;BME280;57470;50.034;15.256;2023-02-18T13:19:25;99128.97;;;12.79;82.90
70103;BME280;57470;50.034;15.256;2023-02-18T13:21:58;99135.41;;;12.76;82.40
70103;BME280;57470;50.034;15.256;2023-02-18T13:24:42;99133.31;;;12.80;82.65
70103;BME280;57470;50.034;15.256;2023-02-18T13:30:26;99120.78;;;12.92;82.21
70103;BME280;57470;50.034;15.256;2023-02-18T13:33:19;99125.28;;;12.80;80.74
70103;BME280;57470;50.034;15.256;2023-02-18T13:40:57;99118.63;;;12.86;80.35
70103;BME280;57470;50.034;15.256;2023-02-18T13:46:20;99108.59;;;12.99;80.10
70103;BME280;57470;50.034;15.256;2023-02-18T13:49:08;99103.59;;;13.05;80.36
70103;BME280;57470;50.034;15.256;2023-02-18T13:51:46;99102.03;;;13.03;79.47
70103;BME280;57470;50.034;15.256;2023-02-18T13:54:21;99110.13;;;13.12;79.31
70103;BME280;57470;50.034;15.256;2023-02-18T13:57:20;99105.13;;;13.19;77.93
70103;BME280;57470;50.034;15.256;2023-02-18T13:59:50;99095.06;;;13.11;78.89
70103;BME280;57470;50.034;15.256;2023-02-18T14:09:48;99086.38;;;13.30;78.25
70103;BME280;57470;50.034;15.256;2023-02-18T14:14:57;99089.84;;;13.10;77.98
70103;BME280;57470;50.034;15.256;2023-02-18T14:25:02;99088.44;;;13.06;78.71
70103;BME280;57470;50.034;15.256;2023-02-18T14:27:27;99081.22;;;12.97;78.76
70103;BME280;57470;50.034;15.256;2023-02-18T14:29:53;99082.56;;;12.91;79.44
70103;BME280;57470;50.034;15.256;2023-02-18T14:32:19;99083.41;;;12.92;78.22
70103;BME280;57470;50.034;15.256;2023-02-18T14:34:56;99081.47;;;12.94;77.68
70103;BME280;57470;50.034;15.256;2023-02-18T14:37:53;99087.00;;;13.02;78.32
70103;BME280;57470;50.034;15.256;2023-02-18T14:40:31;99086.66;;;12.95;78.02
70103;BME280;57470;50.034;15.256;2023-02-18T14:48:56;99086.63;;;12.74;77.12
70103;BME280;57470;50.034;15.256;2023-02-18T14:51:28;99084.22;;;12.71;76.49
70103;BME280;57470;50.034;15.256;2023-02-18T14:53:55;99081.09;;;12.66;76.33
70103;BME280;57470;50.034;15.256;2023-02-18T14:56:20;99099.78;;;12.66;75.19
70103;BME280;57470;50.034;15.256;2023-02-18T14:58:54;99095.41;;;12.65;74.26
70103;BME280;57470;50.034;15.256;2023-02-18T15:03:49;99103.22;;;12.57;73.90
70103;BME280;57470;50.034;15.256;2023-02-18T15:06:31;99086.47;;;12.55;73.10
70103;BME280;57470;50.034;15.256;2023-02-18T15:08:59;99078.38;;;12.46;73.42